Portada
METAR-TAF:

METAR-TAF

Aeroports :

Briansk, Rússia

latitud: 53-15N, longitud: 034-19E, altitud: 217 m

Observació

L'informe es va fer fa 6 hores i 19 minuts, a les 15:00 UTC
Vent 6 kt del Oest
Temperatura 23°C
Humitat 38%
Pressió 1025 hPa
Visibilitat 10 km o més
sense núvols per sota de 1500 mi sense presència de cumulonimbus.

METAR: UUBP 241500Z 28003MPS CAVOK 23/08 Q1025 R16/CLRD70 NOSIG RMK QFE750/1000

Hora: 00:19 (21:19 UTC)

Pronòstic

L'informe es va fer fa 10 hores i 31 minuts, a les 10:48 UTC
Pronòstic vàlid del 24 a les 12 UTC al 24 a les 21 UTC
Vent 2 kt amb direcció variable
Visibilitat 10 km o més
sense núvols per sota de 1500 mi sense presència de cumulonimbus.

TAF: UUBP 241048Z 2412/2421 VRB01MPS CAVOK

Observacions i pronòstics meteorològics de més de 4000 aeroports (METAR i TAF).

Les estacions disponibles són els punts grocs i vermells al mapa.

Posi el ratolí al punt desitjat per veure el nom de l'estació.

Feu clic per veure les observacions i els pronòstics meteorològics.

Per canviar el mapa: feu clic els botons verds amb una creu de color negre per apropar; al botó verd amb un guió per allunyar la imatge; o en les fletxes verdes per a mapes adjacents.


METAR-TAF: